Time;durP1;ratioP1;P1;durP2;ratioP2;P2;SDS_P1;SDS_P2;PMS_P1;PMS_P2;Temp;Humidity;BMP_temperature;BMP_pressure;BME280_temperature;BME280_humidity;BME280_pressure;Samples;Min_cycle;Max_cycle;Signal;HPM_P1;HPM_P2
2023/06/24 00:00:06;;;;;;;23.98;8.98;;;;;;;17.26;100.00;102271.13;5081688;28;20051;-75
2023/06/24 00:02:35;;;;;;;22.55;10.05;;;;;;;17.23;100.00;102267.78;5082299;28;20028;-75
2023/06/24 00:05:01;;;;;;;22.02;10.50;;;;;;;17.19;100.00;102269.00;5108001;28;20016;-75
2023/06/24 00:07:27;;;;;;;20.25;9.98;;;;;;;17.14;100.00;102269.38;5084860;28;20116;-75
2023/06/24 00:09:52;;;;;;;22.02;10.63;;;;;;;17.09;100.00;102267.00;5108709;28;20094;-75
2023/06/24 00:12:19;;;;;;;21.25;10.90;;;;;;;17.05;100.00;102272.81;5102533;28;20057;-75
2023/06/24 00:14:45;;;;;;;19.80;10.15;;;;;;;17.00;100.00;102280.44;5090449;28;20027;-75
2023/06/24 00:17:11;;;;;;;21.10;10.30;;;;;;;16.94;100.00;102271.81;5105009;28;20052;-75
2023/06/24 00:19:37;;;;;;;22.00;10.70;;;;;;;16.95;100.00;102278.09;5105814;28;20059;-76
2023/06/24 00:22:03;;;;;;;21.75;10.57;;;;;;;16.91;100.00;102276.59;5105481;28;20055;-75
2023/06/24 00:24:29;;;;;;;20.50;9.88;;;;;;;16.89;100.00;102284.00;5087685;28;20139;-75
2023/06/24 00:26:56;;;;;;;21.10;10.38;;;;;;;16.87;100.00;102285.94;5096666;28;20039;-75
2023/06/24 00:29:22;;;;;;;20.58;10.80;;;;;;;16.78;100.00;102285.66;5106075;28;20035;-75
2023/06/24 00:31:47;;;;;;;22.83;11.70;;;;;;;16.75;100.00;102277.75;5106254;28;20035;-75
2023/06/24 00:34:13;;;;;;;20.25;10.18;;;;;;;16.72;100.00;102288.84;5104939;28;20043;-75
2023/06/24 00:36:39;;;;;;;21.27;11.48;;;;;;;16.68;100.00;102281.94;5091207;28;20084;-75
2023/06/24 00:39:08;;;;;;;22.15;11.55;;;;;;;16.68;100.00;102289.22;5087310;28;20108;-75
2023/06/24 00:41:34;;;;;;;24.00;12.25;;;;;;;16.65;100.00;102281.28;5106638;28;20046;-75
2023/06/24 00:44:00;;;;;;;23.75;12.82;;;;;;;16.60;100.00;102278.91;5108913;28;20015;-75
2023/06/24 00:46:27;;;;;;;27.15;13.93;;;;;;;16.58;100.00;102278.19;5104785;28;20035;-75
2023/06/24 00:48:54;;;;;;;23.35;13.98;;;;;;;16.55;100.00;102286.56;5104494;28;20058;-75
2023/06/24 00:51:21;;;;;;;25.75;13.93;;;;;;;16.52;100.00;102287.66;5105925;28;20033;-75
2023/06/24 00:53:47;;;;;;;23.83;13.77;;;;;;;16.50;100.00;102296.88;5103289;28;20045;-75
2023/06/24 00:56:14;;;;;;;23.00;13.80;;;;;;;16.48;100.00;102301.56;5087142;28;20044;-75
2023/06/24 00:58:42;;;;;;;25.58;14.13;;;;;;;16.42;100.00;102295.63;5089839;28;20098;-75
2023/06/24 01:01:08;;;;;;;24.33;15.45;;;;;;;16.42;100.00;102292.91;5099048;28;20023;-75
2023/06/24 01:03:35;;;;;;;22.38;12.63;;;;;;;16.41;100.00;102284.88;5076104;28;20087;-75
2023/06/24 01:06:01;;;;;;;25.42;14.02;;;;;;;16.39;100.00;102282.28;5087164;28;20040;-75
2023/06/24 01:08:26;;;;;;;23.98;12.48;;;;;;;16.38;100.00;102280.56;5105341;28;20024;-75
2023/06/24 01:10:51;;;;;;;24.42;13.13;;;;;;;16.34;100.00;102278.19;5089442;28;20024;-75
2023/06/24 01:13:17;;;;;;;22.25;13.35;;;;;;;16.32;100.00;102272.88;5107795;28;20048;-75
2023/06/24 01:15:44;;;;;;;21.98;12.90;;;;;;;16.30;100.00;102277.56;5086644;28;20028;-75
2023/06/24 01:18:41;;;;;;;25.00;12.60;;;;;;;16.29;100.00;102281.25;5103822;28;20079;-75
2023/06/24 01:21:44;;;;;;;21.65;12.15;;;;;;;16.27;100.00;102272.38;5094097;28;20036;-75
2023/06/24 01:24:45;;;;;;;22.17;11.68;;;;;;;16.24;100.00;102273.44;5096538;28;20036;-75
2023/06/24 01:27:28;;;;;;;24.85;11.95;;;;;;;16.20;100.00;102271.94;5100280;28;20031;-75
2023/06/24 01:30:13;;;;;;;24.25;14.00;;;;;;;16.18;100.00;102268.50;5108077;28;20032;-75
2023/06/24 01:32:44;;;;;;;22.50;12.90;;;;;;;16.15;100.00;102262.41;5099577;28;20096;-75
2023/06/24 01:35:20;;;;;;;21.98;11.52;;;;;;;16.08;100.00;102262.03;5085689;28;20020;-75
2023/06/24 01:37:51;;;;;;;23.30;12.82;;;;;;;16.03;100.00;102261.47;5090186;28;20031;-75
2023/06/24 01:40:22;;;;;;;21.80;11.35;;;;;;;16.00;100.00;102268.03;5088115;28;20004;-75
2023/06/24 01:42:48;;;;;;;23.95;11.80;;;;;;;15.96;100.00;102263.81;5083746;28;20024;-75
2023/06/24 01:45:16;;;;;;;22.40;12.05;;;;;;;15.92;100.00;102262.28;5106233;28;20047;-75
2023/06/24 01:47:45;;;;;;;23.80;13.55;;;;;;;15.94;100.00;102268.44;5103630;28;20035;-75
2023/06/24 01:50:12;;;;;;;23.58;13.77;;;;;;;15.93;100.00;102269.44;5105379;28;20028;-75
2023/06/24 01:52:39;;;;;;;25.77;14.10;;;;;;;15.90;100.00;102267.81;5086124;28;20124;-75
2023/06/24 01:55:07;;;;;;;23.88;13.80;;;;;;;15.91;100.00;102263.25;5085893;28;20012;-75
2023/06/24 01:57:34;;;;;;;23.03;13.07;;;;;;;15.88;100.00;102264.34;5098055;28;20039;-75
2023/06/24 02:00:01;;;;;;;23.38;14.05;;;;;;;15.88;100.00;102260.78;5105615;28;20285;-75
2023/06/24 02:02:28;;;;;;;27.52;14.50;;;;;;;15.85;100.00;102258.28;5089229;28;20095;-75
2023/06/24 02:04:55;;;;;;;22.42;12.40;;;;;;;15.83;100.00;102254.84;5093883;28;20020;-75
2023/06/24 02:07:22;;;;;;;24.27;14.07;;;;;;;15.83;100.00;102254.84;5076653;28;20085;-75
2023/06/24 02:09:48;;;;;;;25.92;14.45;;;;;;;15.77;100.00;102258.81;5079069;28;20055;-75
2023/06/24 02:12:15;;;;;;;26.83;13.60;;;;;;;15.75;100.00;102249.06;5106427;28;20027;-75
2023/06/24 02:14:41;;;;;;;22.90;13.35;;;;;;;15.73;100.00;102247.31;5104539;28;20028;-74
2023/06/24 02:17:09;;;;;;;24.33;13.48;;;;;;;15.69;100.00;102245.81;5076606;28;20070;-75
2023/06/24 02:19:36;;;;;;;23.73;13.70;;;;;;;15.66;100.00;102246.03;5102699;28;20025;-75
2023/06/24 02:22:04;;;;;;;23.92;12.95;;;;;;;15.65;100.00;102251.56;5097173;28;20016;-75
2023/06/24 02:24:30;;;;;;;24.70;13.15;;;;;;;15.62;100.00;102249.94;5088174;28;20060;-74
2023/06/24 02:26:57;;;;;;;25.30;14.70;;;;;;;15.62;100.00;102252.66;5096987;28;20032;-75
2023/06/24 02:29:27;;;;;;;22.27;11.05;;;;;;;15.59;100.00;102249.31;5101184;28;20090;-75
2023/06/24 02:31:53;;;;;;;22.58;11.95;;;;;;;15.57;100.00;102246.72;5080346;28;20009;-75
2023/06/24 02:34:20;;;;;;;25.38;13.23;;;;;;;15.54;100.00;102252.34;5105365;28;20040;-75
2023/06/24 02:36:45;;;;;;;27.80;14.02;;;;;;;15.54;100.00;102252.34;5099848;28;20024;-75
2023/06/24 02:39:10;;;;;;;24.05;13.75;;;;;;;15.51;100.00;102252.59;5108508;28;20092;-75
2023/06/24 02:41:36;;;;;;;23.13;12.93;;;;;;;15.49;100.00;102250.00;5091070;28;20070;-75
2023/06/24 02:44:02;;;;;;;23.02;11.80;;;;;;;15.45;100.00;102245.75;5102703;28;20030;-74
2023/06/24 02:46:29;;;;;;;25.25;13.48;;;;;;;15.42;100.00;102247.81;5086361;28;20038;-75
2023/06/24 02:48:56;;;;;;;20.70;12.20;;;;;;;15.43;100.00;102249.53;5105362;28;20016;-75
2023/06/24 02:51:22;;;;;;;21.10;11.48;;;;;;;15.42;100.00;102242.38;5104788;28;20038;-75
2023/06/24 02:53:48;;;;;;;22.55;11.93;;;;;;;15.40;100.00;102247.06;5069677;28;20025;-75
2023/06/24 02:56:14;;;;;;;23.48;11.90;;;;;;;15.36;100.00;102251.84;5067561;28;20028;-75
2023/06/24 02:58:40;;;;;;;22.65;11.02;;;;;;;15.32;100.00;102253.88;5066109;28;20088;-75
2023/06/24 03:01:08;;;;;;;23.73;12.15;;;;;;;15.31;100.00;102260.28;5062920;28;20031;-74
2023/06/24 03:03:35;;;;;;;24.88;11.80;;;;;;;15.26;100.00;102267.88;5083786;28;20048;-75
2023/06/24 03:06:02;;;;;;;22.13;10.98;;;;;;;15.25;100.00;102271.56;5064746;28;20032;-75
2023/06/24 03:08:27;;;;;;;21.52;11.35;;;;;;;15.20;100.00;102268.31;5078780;28;20029;-75
2023/06/24 03:10:57;;;;;;;21.88;11.38;;;;;;;15.18;100.00;102273.84;5064349;28;20043;-74
2023/06/24 03:13:23;;;;;;;21.48;10.85;;;;;;;15.12;100.00;102274.25;5061686;28;20085;-74
2023/06/24 03:15:48;;;;;;;22.25;10.98;;;;;;;15.10;100.00;102264.53;5084784;28;20062;-74
2023/06/24 03:18:14;;;;;;;22.33;10.88;;;;;;;15.09;100.00;102270.91;5063548;28;20032;-75
2023/06/24 03:20:39;;;;;;;21.77;10.90;;;;;;;15.08;100.00;102261.03;5081600;28;20033;-75
2023/06/24 03:23:08;;;;;;;22.45;10.85;;;;;;;15.05;100.00;102264.81;5071425;28;20104;-75
2023/06/24 03:25:35;;;;;;;27.10;11.00;;;;;;;15.05;100.00;102269.38;5081936;28;20044;-75
2023/06/24 03:28:01;;;;;;;22.35;10.50;;;;;;;15.03;100.00;102270.34;5087336;28;20046;-75
2023/06/24 03:30:30;;;;;;;21.38;10.82;;;;;;;15.02;100.00;102268.63;5063838;28;20040;-75
2023/06/24 03:32:55;;;;;;;22.90;11.70;;;;;;;15.01;100.00;102266.88;5063517;28;20104;-75
2023/06/24 03:35:22;;;;;;;22.17;10.70;;;;;;;15.02;100.00;102259.63;5073035;28;20040;-75
2023/06/24 03:37:47;;;;;;;22.20;11.82;;;;;;;15.05;100.00;102255.84;5062909;28;20013;-75
2023/06/24 03:40:15;;;;;;;22.33;12.35;;;;;;;15.05;100.00;102250.41;5063771;28;20082;-75
2023/06/24 03:42:41;;;;;;;24.02;12.75;;;;;;;15.06;100.00;102254.88;5059845;28;20015;-75
2023/06/24 03:45:09;;;;;;;24.15;12.63;;;;;;;15.03;100.00;102256.81;5083092;28;20021;-75
2023/06/24 03:47:34;;;;;;;26.27;12.30;;;;;;;15.02;100.00;102256.91;5064837;28;20035;-75
2023/06/24 03:50:00;;;;;;;23.42;13.07;;;;;;;15.00;100.00;102259.72;5066766;28;20029;-75
2023/06/24 03:52:25;;;;;;;25.52;13.40;;;;;;;14.98;100.00;102271.66;5076521;28;20048;-75
2023/06/24 03:54:50;;;;;;;23.95;11.90;;;;;;;14.95;100.00;102267.31;5102304;28;20021;-75
2023/06/24 03:57:16;;;;;;;23.15;12.35;;;;;;;14.97;100.00;102278.03;5083137;28;20092;-75
2023/06/24 03:59:42;;;;;;;22.70;12.45;;;;;;;14.95;100.00;102274.56;5087106;28;20025;-75
2023/06/24 04:02:07;;;;;;;24.48;13.52;;;;;;;14.95;100.00;102277.25;5099947;28;20406;-75
2023/06/24 04:04:33;;;;;;;22.40;12.38;;;;;;;14.94;100.00;102279.09;5070768;28;20004;-75
2023/06/24 04:06:59;;;;;;;23.45;12.80;;;;;;;14.94;100.00;102280.97;5098314;28;20028;-75
2023/06/24 04:09:24;;;;;;;24.17;13.27;;;;;;;14.94;100.00;102281.81;5083953;28;20012;-75
2023/06/24 04:11:49;;;;;;;26.60;12.88;;;;;;;14.97;100.00;102283.44;5103651;28;20031;-75
2023/06/24 04:14:15;;;;;;;24.40;13.65;;;;;;;14.97;100.00;102276.19;5101945;28;20017;-75
2023/06/24 04:16:40;;;;;;;24.38;13.13;;;;;;;15.00;100.00;102283.25;5101887;28;20036;-75
2023/06/24 04:19:05;;;;;;;24.35;13.77;;;;;;;15.00;100.00;102273.25;5086052;28;20020;-75
2023/06/24 04:21:31;;;;;;;24.60;13.82;;;;;;;15.03;100.00;102273.03;5085937;28;20035;-75
2023/06/24 04:23:56;;;;;;;22.90;12.32;;;;;;;15.08;100.00;102271.88;5099703;28;20089;-75
2023/06/24 04:26:21;;;;;;;24.80;13.90;;;;;;;15.09;100.00;102279.88;5083034;28;20036;-75
2023/06/24 04:28:47;;;;;;;23.38;12.57;;;;;;;15.10;100.00;102276.22;5105104;28;20019;-75
2023/06/24 04:31:12;;;;;;;29.63;13.05;;;;;;;15.14;100.00;102276.84;5100537;28;20030;-75
2023/06/24 04:33:37;;;;;;;24.05;12.43;;;;;;;15.18;100.00;102278.38;5099529;28;20043;-75
2023/06/24 04:36:03;;;;;;;26.02;14.20;;;;;;;15.21;100.00;102272.72;5100298;28;20055;-75
2023/06/24 04:38:28;;;;;;;26.27;12.63;;;;;;;15.24;100.00;102275.22;5081301;28;20015;-75
2023/06/24 04:40:54;;;;;;;23.63;12.57;;;;;;;15.27;100.00;102276.84;5100493;28;20058;-75
2023/06/24 04:43:19;;;;;;;25.40;13.88;;;;;;;15.29;100.00;102275.78;5096830;28;20032;-75
2023/06/24 04:45:44;;;;;;;23.88;12.88;;;;;;;15.34;100.00;102281.75;5082534;28;20032;-75
2023/06/24 04:48:09;;;;;;;26.98;14.02;;;;;;;15.38;100.00;102276.97;5100895;28;20028;-75
2023/06/24 04:50:35;;;;;;;23.55;13.13;;;;;;;15.41;100.00;102284.03;5108801;28;20037;-75
2023/06/24 04:53:01;;;;;;;25.67;14.23;;;;;;;15.44;100.00;102281.09;5082116;28;20036;-75
2023/06/24 04:55:27;;;;;;;25.83;14.35;;;;;;;15.49;100.00;102281.63;5105671;28;20032;-75
2023/06/24 04:57:52;;;;;;;29.08;16.35;;;;;;;15.54;100.00;102279.47;5086216;28;20032;-75
2023/06/24 05:00:18;;;;;;;27.92;16.45;;;;;;;15.58;100.00;102285.50;5101948;28;20009;-75
2023/06/24 05:02:43;;;;;;;29.25;16.35;;;;;;;15.62;100.00;102285.16;5096428;28;20151;-75
2023/06/24 05:05:08;;;;;;;30.33;16.90;;;;;;;15.65;100.00;102282.28;5106875;28;20030;-75
2023/06/24 05:07:34;;;;;;;29.20;16.85;;;;;;;15.67;100.00;102276.75;5097017;28;20016;-75
2023/06/24 05:09:59;;;;;;;28.35;16.77;;;;;;;15.71;100.00;102283.66;5105987;28;20031;-75
2023/06/24 05:12:24;;;;;;;27.98;16.75;;;;;;;15.75;100.00;102287.88;5105056;28;20069;-75
2023/06/24 05:14:51;;;;;;;31.42;16.85;;;;;;;15.79;100.00;102283.16;5103075;28;20125;-76
2023/06/24 05:17:17;;;;;;;26.77;17.45;;;;;;;15.83;100.00;102290.09;5088018;28;20034;-75
2023/06/24 05:19:42;;;;;;;28.20;17.38;;;;;;;15.88;100.00;102293.31;5097732;28;20016;-76
2023/06/24 05:22:09;;;;;;;27.60;18.35;;;;;;;15.94;100.00;102286.56;5103596;28;20020;-75
2023/06/24 05:24:34;;;;;;;26.85;16.08;;;;;;;15.99;100.00;102285.25;5107707;28;20047;-75
2023/06/24 05:27:05;;;;;;;30.77;17.40;;;;;;;16.04;100.00;102282.22;5084211;28;20052;-75
2023/06/24 05:29:30;;;;;;;27.08;16.90;;;;;;;16.10;100.00;102272.75;5104321;28;20030;-75
2023/06/24 05:31:56;;;;;;;29.63;17.23;;;;;;;16.16;100.00;102281.28;5101673;28;20032;-75
2023/06/24 05:34:21;;;;;;;29.42;17.40;;;;;;;16.21;100.00;102289.97;5084518;28;20024;-75
2023/06/24 05:36:46;;;;;;;26.60;14.65;;;;;;;16.28;100.00;102294.94;5098381;28;20028;-76
2023/06/24 05:39:13;;;;;;;27.23;15.50;;;;;;;16.33;100.00;102292.75;5104934;28;20085;-76
2023/06/24 05:41:38;;;;;;;27.00;16.15;;;;;;;16.37;100.00;102294.22;5103673;28;20045;-76
2023/06/24 05:44:07;;;;;;;29.13;16.10;;;;;;;16.43;100.00;102293.78;5090801;28;20084;-76
2023/06/24 05:46:32;;;;;;;29.58;16.00;;;;;;;16.50;100.00;102288.75;5103805;28;20017;-76
2023/06/24 05:48:58;;;;;;;28.75;16.08;;;;;;;16.58;100.00;102291.75;5101952;28;20064;-76
2023/06/24 05:51:23;;;;;;;27.42;15.98;;;;;;;16.63;100.00;102299.53;5083822;28;20036;-76
2023/06/24 05:53:49;;;;;;;26.92;14.95;;;;;;;16.67;100.00;102299.19;5089465;28;20048;-76
2023/06/24 05:56:14;;;;;;;27.83;15.50;;;;;;;16.73;100.00;102297.84;5082734;28;20044;-76
2023/06/24 05:58:40;;;;;;;26.20;14.75;;;;;;;16.81;100.00;102291.84;5063345;28;20083;-76
2023/06/24 06:01:07;;;;;;;25.83;15.48;;;;;;;16.86;100.00;102297.78;5062484;28;20101;-76
2023/06/24 06:03:32;;;;;;;25.75;13.98;;;;;;;16.92;100.00;102291.91;5069882;28;20021;-74
2023/06/24 06:05:57;;;;;;;25.00;14.52;;;;;;;16.97;100.00;102292.44;5062195;28;20020;-76
2023/06/24 06:08:23;;;;;;;26.30;13.80;;;;;;;17.01;100.00;102293.91;5078449;28;20029;-77
2023/06/24 06:10:48;;;;;;;25.42;13.65;;;;;;;17.08;100.00;102305.16;5062678;28;20035;-76
2023/06/24 06:13:13;;;;;;;26.35;13.30;;;;;;;17.15;100.00;102295.56;5084513;28;20092;-76
2023/06/24 06:15:39;;;;;;;23.05;12.20;;;;;;;17.22;98.63;102301.34;5076244;28;20045;-76
2023/06/24 06:18:04;;;;;;;23.35;12.13;;;;;;;17.28;97.85;102295.47;5067561;28;20040;-76
2023/06/24 06:20:29;;;;;;;23.38;12.25;;;;;;;17.33;97.00;102295.94;5084564;28;20164;-75
2023/06/24 06:22:55;;;;;;;23.65;11.18;;;;;;;17.40;96.25;102291.75;5079151;28;20111;-76
2023/06/24 06:25:20;;;;;;;23.30;11.63;;;;;;;17.48;94.02;102304.72;5059016;28;20024;-75
2023/06/24 06:27:45;;;;;;;22.60;10.55;;;;;;;17.52;93.33;102303.50;5072409;28;20032;-75
2023/06/24 06:30:12;;;;;;;24.33;12.63;;;;;;;17.58;92.29;102303.00;5060834;28;20048;-76
2023/06/24 06:32:37;;;;;;;22.42;10.10;;;;;;;17.65;91.20;102306.13;5069206;28;20024;-75
2023/06/24 06:35:02;;;;;;;22.95;11.20;;;;;;;17.71;90.82;102308.31;5059098;28;20024;-75
2023/06/24 06:37:28;;;;;;;22.48;10.02;;;;;;;17.78;89.87;102311.44;5064240;28;20032;-76
2023/06/24 06:39:53;;;;;;;22.70;9.60;;;;;;;17.81;90.71;102308.47;5060891;28;20030;-76
2023/06/24 06:42:19;;;;;;;20.65;9.23;;;;;;;17.87;89.44;102310.69;5062392;28;20037;-75
2023/06/24 06:44:44;;;;;;;21.05;10.13;;;;;;;17.93;89.00;102317.50;5057285;28;20288;-75
2023/06/24 06:47:10;;;;;;;21.33;10.13;;;;;;;18.01;90.71;102322.31;5074110;28;20032;-75
2023/06/24 06:49:36;;;;;;;22.77;9.63;;;;;;;18.06;89.28;102320.09;5052083;28;20032;-76
2023/06/24 06:52:01;;;;;;;21.35;9.85;;;;;;;18.09;89.29;102320.69;5056493;28;20031;-76
2023/06/24 06:54:26;;;;;;;23.88;11.18;;;;;;;18.17;89.83;102320.09;5093489;28;20032;-75
2023/06/24 06:56:52;;;;;;;20.77;9.68;;;;;;;18.22;90.00;102325.16;5099257;28;20382;-76
2023/06/24 06:59:17;;;;;;;22.83;10.35;;;;;;;18.27;87.99;102323.78;5096242;28;20108;-76
2023/06/24 07:01:43;;;;;;;21.60;9.70;;;;;;;18.32;89.06;102332.41;5097352;28;20028;-75
2023/06/24 07:04:08;;;;;;;21.13;9.75;;;;;;;18.36;87.13;102335.75;5098228;28;20058;-76
2023/06/24 07:06:33;;;;;;;21.85;8.75;;;;;;;18.41;90.72;102329.94;5093144;28;20146;-76
2023/06/24 07:08:59;;;;;;;23.55;8.88;;;;;;;18.45;88.92;102334.97;5102581;28;20028;-76
2023/06/24 07:11:24;;;;;;;20.20;8.27;;;;;;;18.48;89.64;102340.16;5100226;28;20172;-76
2023/06/24 07:13:51;;;;;;;20.58;8.45;;;;;;;18.54;89.29;102343.34;5089206;28;20035;-76
2023/06/24 07:16:17;;;;;;;19.25;7.53;;;;;;;18.60;87.19;102342.88;5091127;28;20033;-77
2023/06/24 07:18:43;;;;;;;22.58;8.75;;;;;;;18.68;86.10;102345.78;5070708;28;20375;-76
2023/06/24 07:21:08;;;;;;;21.63;7.88;;;;;;;18.70;85.33;102338.38;5068314;28;20031;-77
2023/06/24 07:23:33;;;;;;;21.25;7.90;;;;;;;18.75;87.66;102335.25;5080197;28;20032;-76
2023/06/24 07:25:59;;;;;;;20.52;8.45;;;;;;;18.80;83.99;102333.88;5073839;28;20032;-76
2023/06/24 07:28:24;;;;;;;19.88;6.82;;;;;;;18.87;86.75;102334.22;5085548;28;20036;-76
2023/06/24 07:30:49;;;;;;;17.25;6.10;;;;;;;18.90;84.10;102330.41;5069399;28;20138;-77
2023/06/24 07:33:15;;;;;;;18.02;6.00;;;;;;;18.94;84.81;102326.41;5081073;28;20135;-77
2023/06/24 07:35:40;;;;;;;18.58;6.20;;;;;;;19.00;84.29;102336.78;5076726;28;20081;-76
2023/06/24 07:38:05;;;;;;;16.15;5.43;;;;;;;19.04;79.59;102335.53;5069798;28;20043;-76
2023/06/24 07:40:31;;;;;;;20.83;5.57;;;;;;;19.10;75.36;102340.44;5078853;28;20097;-76
2023/06/24 07:42:56;;;;;;;15.13;4.57;;;;;;;19.15;76.12;102332.75;5074483;28;20457;-76
2023/06/24 07:45:21;;;;;;;15.48;4.68;;;;;;;19.21;74.88;102325.91;5057962;28;20078;-76
2023/06/24 07:47:47;;;;;;;17.48;4.85;;;;;;;19.27;73.88;102338.09;5074622;28;20092;-76
2023/06/24 07:50:12;;;;;;;15.80;4.75;;;;;;;19.31;75.96;102326.84;5064880;28;20024;-77
2023/06/24 07:52:38;;;;;;;18.48;6.18;;;;;;;19.34;75.93;102332.00;5076745;28;20039;-76
2023/06/24 07:55:04;;;;;;;16.85;5.68;;;;;;;19.41;74.30;102328.75;5084855;28;20068;-76
2023/06/24 07:57:30;;;;;;;16.65;5.45;;;;;;;19.47;76.37;102331.78;5067430;28;20100;-77
2023/06/24 07:59:55;;;;;;;14.82;4.95;;;;;;;19.53;76.88;102328.53;5090007;28;20013;-77
2023/06/24 08:02:20;;;;;;;18.27;5.50;;;;;;;19.56;73.23;102328.25;5102004;23;20507;-77
2023/06/24 08:04:46;;;;;;;17.60;6.13;;;;;;;19.63;73.92;102330.44;5085964;28;20031;-76
2023/06/24 08:07:11;;;;;;;16.02;5.43;;;;;;;19.64;72.97;102326.72;5065792;28;20036;-77
2023/06/24 08:09:37;;;;;;;18.73;5.20;;;;;;;19.74;73.51;102322.16;5078802;28;20500;-75
2023/06/24 08:12:02;;;;;;;14.55;4.20;;;;;;;19.75;72.84;102329.34;5063495;28;20072;-75
2023/06/24 08:14:28;;;;;;;14.55;4.43;;;;;;;19.83;71.90;102321.38;5066151;28;20039;-76
2023/06/24 08:16:53;;;;;;;15.68;4.82;;;;;;;19.85;71.42;102321.22;5071583;28;20047;-76
2023/06/24 08:19:18;;;;;;;12.93;4.28;;;;;;;19.89;69.89;102319.97;5085615;28;20487;-76
2023/06/24 08:21:44;;;;;;;11.65;4.15;;;;;;;19.94;71.71;102325.00;5084458;28;20024;-79
2023/06/24 08:24:09;;;;;;;13.90;4.18;;;;;;;20.02;70.54;102315.13;5084076;28;20056;-80
2023/06/24 08:26:34;;;;;;;11.73;4.05;;;;;;;20.05;68.07;102316.72;5083116;28;20390;-77
2023/06/24 08:29:00;;;;;;;15.23;4.97;;;;;;;20.08;71.66;102313.69;5066860;28;20447;-76
2023/06/24 08:31:25;;;;;;;14.63;4.28;;;;;;;20.13;68.43;102314.13;5075098;28;20115;-77
2023/06/24 08:33:54;;;;;;;13.30;4.25;;;;;;;20.16;68.44;102310.28;5076877;28;20503;-77
2023/06/24 08:36:23;;;;;;;14.73;5.30;;;;;;;20.28;71.00;102309.16;5086143;28;20032;-77
2023/06/24 08:38:48;;;;;;;12.05;3.97;;;;;;;20.28;71.40;102319.19;5069678;28;20278;-79
2023/06/24 08:41:14;;;;;;;14.77;4.60;;;;;;;20.33;70.01;102306.84;5063354;28;20036;-79
2023/06/24 08:43:40;;;;;;;12.07;3.97;;;;;;;20.39;68.39;102309.00;5059629;28;20027;-82
2023/06/24 08:46:05;;;;;;;10.73;3.47;;;;;;;20.44;65.08;102314.06;5072853;28;20027;-81
2023/06/24 08:48:32;;;;;;;11.93;4.10;;;;;;;20.51;67.14;102309.75;5085324;28;20071;-82
2023/06/24 08:51:00;;;;;;;14.00;3.90;;;;;;;20.56;68.38;102309.34;5068326;28;20020;-82
2023/06/24 08:53:27;;;;;;;10.35;3.35;;;;;;;20.68;64.08;102308.22;5057745;28;20037;-82
2023/06/24 08:55:54;;;;;;;11.43;3.58;;;;;;;20.78;64.99;102303.63;5059469;28;20484;-82
2023/06/24 08:58:19;;;;;;;12.57;4.70;;;;;;;20.82;63.77;102312.41;5083157;28;20036;-82
2023/06/24 09:00:45;;;;;;;10.57;3.83;;;;;;;20.93;64.08;102308.66;5075323;28;20019;-82
2023/06/24 09:03:11;;;;;;;15.60;4.40;;;;;;;21.06;66.15;102309.19;5080118;28;20036;-82
2023/06/24 09:05:36;;;;;;;14.10;4.45;;;;;;;21.11;64.45;102317.84;5071070;28;20543;-82
2023/06/24 09:08:01;;;;;;;11.65;4.20;;;;;;;21.17;65.33;102302.69;5067895;28;20028;-83
2023/06/24 09:10:35;;;;;;;14.80;4.40;;;;;;;21.18;64.39;102309.03;5066064;28;20047;-82
2023/06/24 09:13:02;;;;;;;14.80;4.18;;;;;;;21.23;65.73;102302.13;5084260;28;20028;-82
2023/06/24 09:15:39;;;;;;;12.98;4.05;;;;;;;21.27;64.68;102299.94;5084312;28;20503;-82
2023/06/24 09:18:05;;;;;;;17.45;5.18;;;;;;;21.32;62.79;102307.69;5080085;28;20086;-82
2023/06/24 09:20:32;;;;;;;13.45;4.38;;;;;;;21.43;66.98;102296.59;5079761;28;20020;-82
2023/06/24 09:22:59;;;;;;;13.85;4.75;;;;;;;21.43;62.63;102299.34;5066097;28;20085;-81
2023/06/24 09:25:24;;;;;;;15.20;4.60;;;;;;;21.49;63.14;102287.78;5064158;28;20025;-82
2023/06/24 09:27:52;;;;;;;15.02;4.43;;;;;;;21.55;62.18;102294.56;5083491;28;20487;-81
2023/06/24 09:30:22;;;;;;;12.55;3.83;;;;;;;21.56;60.80;102294.41;5054574;28;20051;-82
2023/06/24 09:32:48;;;;;;;10.85;3.90;;;;;;;21.57;60.75;102279.75;5072767;28;20052;-82
2023/06/24 09:35:14;;;;;;;11.30;4.03;;;;;;;21.61;60.88;102283.91;5060813;28;20147;-81
2023/06/24 09:37:39;;;;;;;9.68;3.65;;;;;;;21.66;60.09;102286.19;5073276;28;20104;-83
2023/06/24 09:40:06;;;;;;;14.38;4.22;;;;;;;21.69;58.61;102276.81;5082421;28;20044;-82
2023/06/24 09:42:31;;;;;;;10.50;3.72;;;;;;;21.75;58.76;102277.06;5072995;28;20028;-82
2023/06/24 09:44:57;;;;;;;12.27;3.90;;;;;;;21.80;60.26;102272.00;5062541;28;20031;-82
2023/06/24 09:47:27;;;;;;;14.07;3.63;;;;;;;21.83;59.79;102265.34;5057488;28;20059;-78
2023/06/24 09:49:53;;;;;;;11.70;3.85;;;;;;;21.82;57.87;102271.84;5067546;28;20024;-80
2023/06/24 09:52:20;;;;;;;12.15;3.85;;;;;;;21.89;56.02;102274.81;5077208;28;20500;-79
2023/06/24 09:54:49;;;;;;;10.57;3.80;;;;;;;21.95;55.08;102272.34;5085700;28;20479;-80
2023/06/24 09:57:18;;;;;;;;;;;;;;;21.92;61.26;102272.66;5077622;28;20056;-80
2023/06/24 09:59:45;;;;;;;11.60;4.25;;;;;;;21.92;55.58;102269.03;5063275;28;20384;-80
2023/06/24 10:02:14;;;;;;;11.07;3.75;;;;;;;21.96;60.76;102274.09;5064496;28;20041;-80
2023/06/24 10:04:40;;;;;;;9.20;3.50;;;;;;;21.98;61.02;102263.81;5066141;28;20081;-80
2023/06/24 10:07:05;;;;;;;15.88;4.30;;;;;;;22.03;57.41;102267.97;5089404;28;20028;-78
2023/06/24 10:09:31;;;;;;;13.05;4.13;;;;;;;22.07;58.07;102273.00;5085670;28;20039;-79
2023/06/24 10:11:56;;;;;;;13.02;4.55;;;;;;;22.04;55.05;102266.97;5074853;28;20115;-77
2023/06/24 10:14:22;;;;;;;11.23;3.65;;;;;;;22.04;60.36;102266.97;5052560;28;20028;-77
2023/06/24 10:16:47;;;;;;;13.02;4.03;;;;;;;22.04;64.99;102267.81;5082363;28;20035;-78
2023/06/24 10:19:20;;;;;;;12.75;4.25;;;;;;;22.16;59.91;102271.22;5066787;28;20042;-76
2023/06/24 10:21:53;;;;;;;9.43;3.90;;;;;;;22.24;58.61;102265.84;5079762;28;20052;-77
2023/06/24 10:24:33;;;;;;;8.52;3.17;;;;;;;22.21;64.14;102251.56;5073779;28;20032;-77
2023/06/24 10:27:07;;;;;;;14.18;4.82;;;;;;;22.36;59.00;102260.13;5064101;28;20020;-76
2023/06/24 10:29:37;;;;;;;10.25;3.78;;;;;;;22.40;63.65;102258.81;5069743;28;20032;-75
2023/06/24 10:32:12;;;;;;;7.80;3.33;;;;;;;22.42;60.63;102259.53;5078594;28;20047;-75
2023/06/24 10:34:37;;;;;;;11.27;4.15;;;;;;;22.49;59.98;102252.38;5081242;28;20154;-75
2023/06/24 10:37:22;;;;;;;9.60;3.85;;;;;;;22.56;59.83;102247.16;5069394;28;20531;-74
2023/06/24 10:40:00;;;;;;;11.90;4.15;;;;;;;22.63;61.87;102240.88;5057257;28;20020;-75
2023/06/24 10:42:43;;;;;;;12.27;4.15;;;;;;;22.69;58.72;102244.84;5083510;28;20384;-74
2023/06/24 10:45:19;;;;;;;12.00;4.07;;;;;;;22.81;59.40;102242.72;5076052;28;20108;-74
2023/06/24 10:47:49;;;;;;;8.80;3.53;;;;;;;22.76;61.35;102247.84;5073872;28;20024;-75
2023/06/24 10:50:17;;;;;;;7.60;3.42;;;;;;;22.73;61.90;102242.69;5080742;28;20039;-76
2023/06/24 10:52:55;;;;;;;12.75;4.10;;;;;;;22.74;63.39;102236.16;5072733;28;20484;-76
2023/06/24 10:55:23;;;;;;;11.93;3.70;;;;;;;22.68;61.67;102235.78;5079207;28;20413;-76
2023/06/24 10:57:49;;;;;;;11.18;3.85;;;;;;;22.74;64.13;102228.81;5064390;28;20498;-75
2023/06/24 11:00:15;;;;;;;13.95;4.28;;;;;;;22.91;57.28;102228.94;5077581;28;20099;-75
2023/06/24 11:02:41;;;;;;;10.52;3.92;;;;;;;22.97;59.11;102236.50;5072350;28;20557;-75
2023/06/24 11:05:06;;;;;;;11.60;4.47;;;;;;;23.05;62.41;102228.34;5083652;28;20035;-75
2023/06/24 11:07:37;;;;;;;11.30;4.03;;;;;;;23.08;57.27;102225.28;5064088;28;20563;-75